sensor_id;sensor_type;location;lat;lon;timestamp;temperature;humidity
21207;DHT22;10761;48.532;8.026;2024-03-17T00:00:30;8.30;99.90
21207;DHT22;10761;48.532;8.026;2024-03-17T00:02:55;8.20;99.90
21207;DHT22;10761;48.532;8.026;2024-03-17T00:05:21;8.30;99.90
21207;DHT22;10761;48.532;8.026;2024-03-17T00:07:47;8.40;99.90
21207;DHT22;10761;48.532;8.026;2024-03-17T00:10:12;8.40;99.90
21207;DHT22;10761;48.532;8.026;2024-03-17T00:12:38;8.40;99.90
21207;DHT22;10761;48.532;8.026;2024-03-17T00:15:05;8.40;99.90
21207;DHT22;10761;48.532;8.026;2024-03-17T00:17:32;8.40;99.90
21207;DHT22;10761;48.532;8.026;2024-03-17T00:19:59;8.50;99.90
21207;DHT22;10761;48.532;8.026;2024-03-17T00:22:27;8.50;99.90
21207;DHT22;10761;48.532;8.026;2024-03-17T00:24:53;8.50;99.90
21207;DHT22;10761;48.532;8.026;2024-03-17T00:27:18;8.40;99.90
21207;DHT22;10761;48.532;8.026;2024-03-17T00:29:44;8.30;99.90
21207;DHT22;10761;48.532;8.026;2024-03-17T00:32:10;8.20;99.90
21207;DHT22;10761;48.532;8.026;2024-03-17T00:34:37;8.20;99.90
21207;DHT22;10761;48.532;8.026;2024-03-17T00:37:02;8.20;99.90
21207;DHT22;10761;48.532;8.026;2024-03-17T00:39:28;8.20;99.90
21207;DHT22;10761;48.532;8.026;2024-03-17T00:41:54;8.20;99.90
21207;DHT22;10761;48.532;8.026;2024-03-17T00:44:19;8.20;99.90
21207;DHT22;10761;48.532;8.026;2024-03-17T00:46:45;8.20;99.90
21207;DHT22;10761;48.532;8.026;2024-03-17T00:49:12;8.20;99.90
21207;DHT22;10761;48.532;8.026;2024-03-17T00:51:38;8.10;99.90
21207;DHT22;10761;48.532;8.026;2024-03-17T00:54:03;8.10;99.90
21207;DHT22;10761;48.532;8.026;2024-03-17T00:56:29;8.50;99.90
21207;DHT22;10761;48.532;8.026;2024-03-17T00:58:54;8.20;99.90
21207;DHT22;10761;48.532;8.026;2024-03-17T01:01:20;8.20;99.90
21207;DHT22;10761;48.532;8.026;2024-03-17T01:03:46;8.30;99.90
21207;DHT22;10761;48.532;8.026;2024-03-17T01:06:12;8.30;99.90
21207;DHT22;10761;48.532;8.026;2024-03-17T01:08:37;8.30;99.90
21207;DHT22;10761;48.532;8.026;2024-03-17T01:11:03;8.20;99.90
21207;DHT22;10761;48.532;8.026;2024-03-17T01:13:28;8.20;99.90
21207;DHT22;10761;48.532;8.026;2024-03-17T01:15:54;8.20;99.90
21207;DHT22;10761;48.532;8.026;2024-03-17T01:18:19;8.10;99.90
21207;DHT22;10761;48.532;8.026;2024-03-17T01:20:45;8.10;99.90
21207;DHT22;10761;48.532;8.026;2024-03-17T01:23:11;8.10;99.90
21207;DHT22;10761;48.532;8.026;2024-03-17T01:25:37;8.10;99.90
21207;DHT22;10761;48.532;8.026;2024-03-17T01:28:03;8.10;99.90
21207;DHT22;10761;48.532;8.026;2024-03-17T01:30:29;8.10;99.90
21207;DHT22;10761;48.532;8.026;2024-03-17T01:32:55;8.10;99.90
21207;DHT22;10761;48.532;8.026;2024-03-17T01:35:20;8.00;99.90
21207;DHT22;10761;48.532;8.026;2024-03-17T01:37:47;8.00;99.90
21207;DHT22;10761;48.532;8.026;2024-03-17T01:40:12;8.00;99.90
21207;DHT22;10761;48.532;8.026;2024-03-17T01:42:39;8.00;99.90
21207;DHT22;10761;48.532;8.026;2024-03-17T01:47:42;8.00;99.90
21207;DHT22;10761;48.532;8.026;2024-03-17T01:50:09;8.00;99.90
21207;DHT22;10761;48.532;8.026;2024-03-17T01:52:35;8.00;99.90
21207;DHT22;10761;48.532;8.026;2024-03-17T01:55:02;8.00;99.90
21207;DHT22;10761;48.532;8.026;2024-03-17T01:57:28;8.00;99.90
21207;DHT22;10761;48.532;8.026;2024-03-17T01:59:54;8.10;99.90
21207;DHT22;10761;48.532;8.026;2024-03-17T02:02:21;8.10;99.90
21207;DHT22;10761;48.532;8.026;2024-03-17T02:04:46;8.10;99.90
21207;DHT22;10761;48.532;8.026;2024-03-17T02:07:13;8.10;99.90
21207;DHT22;10761;48.532;8.026;2024-03-17T02:09:40;8.10;99.90
21207;DHT22;10761;48.532;8.026;2024-03-17T02:12:06;8.10;99.90
21207;DHT22;10761;48.532;8.026;2024-03-17T02:14:31;8.10;99.90
21207;DHT22;10761;48.532;8.026;2024-03-17T02:16:57;8.10;99.90
21207;DHT22;10761;48.532;8.026;2024-03-17T02:19:22;9.40;99.90
21207;DHT22;10761;48.532;8.026;2024-03-17T02:21:48;8.10;99.90
21207;DHT22;10761;48.532;8.026;2024-03-17T02:24:13;8.10;99.90
21207;DHT22;10761;48.532;8.026;2024-03-17T02:26:39;8.10;99.90
21207;DHT22;10761;48.532;8.026;2024-03-17T02:29:04;8.10;99.90
21207;DHT22;10761;48.532;8.026;2024-03-17T02:31:30;8.10;99.90
21207;DHT22;10761;48.532;8.026;2024-03-17T02:33:55;8.20;99.90
21207;DHT22;10761;48.532;8.026;2024-03-17T02:36:21;8.10;99.90
21207;DHT22;10761;48.532;8.026;2024-03-17T02:38:47;8.20;99.90
21207;DHT22;10761;48.532;8.026;2024-03-17T02:41:42;8.20;99.90
21207;DHT22;10761;48.532;8.026;2024-03-17T02:44:08;8.20;99.90
21207;DHT22;10761;48.532;8.026;2024-03-17T02:46:33;8.20;99.90
21207;DHT22;10761;48.532;8.026;2024-03-17T02:49:00;8.10;99.90
21207;DHT22;10761;48.532;8.026;2024-03-17T02:51:25;8.10;99.90
21207;DHT22;10761;48.532;8.026;2024-03-17T02:53:51;8.10;99.90
21207;DHT22;10761;48.532;8.026;2024-03-17T02:56:17;8.10;99.90
21207;DHT22;10761;48.532;8.026;2024-03-17T02:58:45;8.20;99.90
21207;DHT22;10761;48.532;8.026;2024-03-17T03:01:14;8.20;99.90
21207;DHT22;10761;48.532;8.026;2024-03-17T03:03:43;8.20;99.90
21207;DHT22;10761;48.532;8.026;2024-03-17T03:06:09;8.20;99.90
21207;DHT22;10761;48.532;8.026;2024-03-17T03:08:43;8.20;99.90
21207;DHT22;10761;48.532;8.026;2024-03-17T03:11:11;8.10;99.90
21207;DHT22;10761;48.532;8.026;2024-03-17T03:13:41;8.10;99.90
21207;DHT22;10761;48.532;8.026;2024-03-17T03:16:10;8.10;99.90
21207;DHT22;10761;48.532;8.026;2024-03-17T03:18:37;8.10;99.90
21207;DHT22;10761;48.532;8.026;2024-03-17T03:21:03;8.20;99.90
21207;DHT22;10761;48.532;8.026;2024-03-17T03:23:29;8.20;99.90
21207;DHT22;10761;48.532;8.026;2024-03-17T03:26:00;8.20;99.90
21207;DHT22;10761;48.532;8.026;2024-03-17T03:28:29;8.20;99.90
21207;DHT22;10761;48.532;8.026;2024-03-17T03:30:54;8.20;99.90
21207;DHT22;10761;48.532;8.026;2024-03-17T03:33:20;8.20;99.90
21207;DHT22;10761;48.532;8.026;2024-03-17T03:35:46;8.10;99.90
21207;DHT22;10761;48.532;8.026;2024-03-17T03:38:12;8.10;99.90
21207;DHT22;10761;48.532;8.026;2024-03-17T03:40:39;8.00;99.90
21207;DHT22;10761;48.532;8.026;2024-03-17T03:43:05;8.10;99.90
21207;DHT22;10761;48.532;8.026;2024-03-17T03:45:31;8.00;99.90
21207;DHT22;10761;48.532;8.026;2024-03-17T03:47:56;7.90;99.90
21207;DHT22;10761;48.532;8.026;2024-03-17T03:50:22;7.90;99.90
21207;DHT22;10761;48.532;8.026;2024-03-17T03:52:48;7.80;99.90
21207;DHT22;10761;48.532;8.026;2024-03-17T03:55:16;7.70;99.90
21207;DHT22;10761;48.532;8.026;2024-03-17T03:57:43;7.60;99.90
21207;DHT22;10761;48.532;8.026;2024-03-17T04:00:11;7.70;99.90
21207;DHT22;10761;48.532;8.026;2024-03-17T04:02:50;7.60;99.90
21207;DHT22;10761;48.532;8.026;2024-03-17T04:05:16;7.60;99.90
21207;DHT22;10761;48.532;8.026;2024-03-17T04:07:41;7.60;99.90
21207;DHT22;10761;48.532;8.026;2024-03-17T04:10:09;7.60;99.90
21207;DHT22;10761;48.532;8.026;2024-03-17T04:12:35;7.50;99.90
21207;DHT22;10761;48.532;8.026;2024-03-17T04:15:01;7.50;99.90
21207;DHT22;10761;48.532;8.026;2024-03-17T04:17:28;7.50;99.90
21207;DHT22;10761;48.532;8.026;2024-03-17T04:19:54;7.50;99.90
21207;DHT22;10761;48.532;8.026;2024-03-17T04:22:21;7.40;99.90
21207;DHT22;10761;48.532;8.026;2024-03-17T04:24:48;7.50;99.90
21207;DHT22;10761;48.532;8.026;2024-03-17T04:27:24;7.40;99.90
21207;DHT22;10761;48.532;8.026;2024-03-17T04:29:51;7.40;99.90
21207;DHT22;10761;48.532;8.026;2024-03-17T04:32:17;7.30;99.90
21207;DHT22;10761;48.532;8.026;2024-03-17T04:34:42;7.30;99.90
21207;DHT22;10761;48.532;8.026;2024-03-17T04:37:12;7.30;99.90
21207;DHT22;10761;48.532;8.026;2024-03-17T04:39:42;7.30;99.90
21207;DHT22;10761;48.532;8.026;2024-03-17T04:42:12;7.30;99.90
21207;DHT22;10761;48.532;8.026;2024-03-17T04:44:37;7.20;99.90
21207;DHT22;10761;48.532;8.026;2024-03-17T04:47:04;7.10;99.90
21207;DHT22;10761;48.532;8.026;2024-03-17T04:49:39;7.10;99.90
21207;DHT22;10761;48.532;8.026;2024-03-17T04:52:06;7.10;99.90
21207;DHT22;10761;48.532;8.026;2024-03-17T04:54:33;7.10;99.90
21207;DHT22;10761;48.532;8.026;2024-03-17T04:56:58;7.10;99.90
21207;DHT22;10761;48.532;8.026;2024-03-17T04:59:24;7.00;99.90
21207;DHT22;10761;48.532;8.026;2024-03-17T05:01:50;7.00;99.90
21207;DHT22;10761;48.532;8.026;2024-03-17T05:04:15;7.00;99.90
21207;DHT22;10761;48.532;8.026;2024-03-17T05:06:41;7.00;99.90
21207;DHT22;10761;48.532;8.026;2024-03-17T05:09:08;7.00;99.90
21207;DHT22;10761;48.532;8.026;2024-03-17T05:11:33;6.90;99.90
21207;DHT22;10761;48.532;8.026;2024-03-17T05:14:00;6.90;99.90
21207;DHT22;10761;48.532;8.026;2024-03-17T05:16:26;6.80;99.90
21207;DHT22;10761;48.532;8.026;2024-03-17T05:18:55;6.80;99.90
21207;DHT22;10761;48.532;8.026;2024-03-17T05:21:20;6.70;99.90
21207;DHT22;10761;48.532;8.026;2024-03-17T05:23:47;6.70;99.90
21207;DHT22;10761;48.532;8.026;2024-03-17T05:26:14;6.70;99.90
21207;DHT22;10761;48.532;8.026;2024-03-17T05:28:39;6.70;99.90
21207;DHT22;10761;48.532;8.026;2024-03-17T05:31:05;6.60;99.90
21207;DHT22;10761;48.532;8.026;2024-03-17T05:33:31;6.60;99.90
21207;DHT22;10761;48.532;8.026;2024-03-17T05:35:57;6.60;99.90
21207;DHT22;10761;48.532;8.026;2024-03-17T05:38:25;6.60;99.90
21207;DHT22;10761;48.532;8.026;2024-03-17T05:41:01;6.50;99.90
21207;DHT22;10761;48.532;8.026;2024-03-17T05:43:32;6.50;99.90
21207;DHT22;10761;48.532;8.026;2024-03-17T05:46:02;6.60;99.90
21207;DHT22;10761;48.532;8.026;2024-03-17T05:48:28;6.70;99.90
21207;DHT22;10761;48.532;8.026;2024-03-17T05:50:54;6.60;99.90
21207;DHT22;10761;48.532;8.026;2024-03-17T05:53:20;6.60;99.90
21207;DHT22;10761;48.532;8.026;2024-03-17T05:55:47;6.50;99.90
21207;DHT22;10761;48.532;8.026;2024-03-17T05:58:13;6.60;99.90
21207;DHT22;10761;48.532;8.026;2024-03-17T06:00:39;6.60;99.90
21207;DHT22;10761;48.532;8.026;2024-03-17T06:03:05;6.50;99.90
21207;DHT22;10761;48.532;8.026;2024-03-17T06:05:35;6.50;99.90
21207;DHT22;10761;48.532;8.026;2024-03-17T06:08:02;6.50;99.90
21207;DHT22;10761;48.532;8.026;2024-03-17T06:10:32;6.60;99.90
21207;DHT22;10761;48.532;8.026;2024-03-17T06:12:59;6.70;99.90
21207;DHT22;10761;48.532;8.026;2024-03-17T06:15:25;6.70;99.90
21207;DHT22;10761;48.532;8.026;2024-03-17T06:17:52;6.80;99.90
21207;DHT22;10761;48.532;8.026;2024-03-17T06:20:21;6.80;99.90
21207;DHT22;10761;48.532;8.026;2024-03-17T06:22:48;6.90;99.90
21207;DHT22;10761;48.532;8.026;2024-03-17T06:25:14;6.90;99.90
21207;DHT22;10761;48.532;8.026;2024-03-17T06:27:40;6.90;99.90
21207;DHT22;10761;48.532;8.026;2024-03-17T06:30:06;6.90;99.90
21207;DHT22;10761;48.532;8.026;2024-03-17T06:32:32;6.90;99.90
21207;DHT22;10761;48.532;8.026;2024-03-17T06:35:00;6.80;99.90
21207;DHT22;10761;48.532;8.026;2024-03-17T06:37:26;6.90;99.90
21207;DHT22;10761;48.532;8.026;2024-03-17T06:39:52;7.00;99.90
21207;DHT22;10761;48.532;8.026;2024-03-17T06:42:17;7.10;99.90
21207;DHT22;10761;48.532;8.026;2024-03-17T06:44:43;7.10;99.90
21207;DHT22;10761;48.532;8.026;2024-03-17T06:47:08;7.20;99.90
21207;DHT22;10761;48.532;8.026;2024-03-17T06:49:33;7.40;99.90
21207;DHT22;10761;48.532;8.026;2024-03-17T06:51:59;7.40;99.90
21207;DHT22;10761;48.532;8.026;2024-03-17T06:54:25;7.50;99.90
21207;DHT22;10761;48.532;8.026;2024-03-17T06:56:50;7.50;99.90
21207;DHT22;10761;48.532;8.026;2024-03-17T06:59:17;7.50;99.90
21207;DHT22;10761;48.532;8.026;2024-03-17T07:01:43;7.60;99.90
21207;DHT22;10761;48.532;8.026;2024-03-17T07:04:10;7.60;99.90
21207;DHT22;10761;48.532;8.026;2024-03-17T07:06:36;7.60;99.90
21207;DHT22;10761;48.532;8.026;2024-03-17T07:09:02;7.60;99.90
21207;DHT22;10761;48.532;8.026;2024-03-17T07:11:27;7.60;99.90
21207;DHT22;10761;48.532;8.026;2024-03-17T07:13:53;7.70;99.90
21207;DHT22;10761;48.532;8.026;2024-03-17T07:16:19;7.70;99.90
21207;DHT22;10761;48.532;8.026;2024-03-17T07:18:46;7.70;99.90
21207;DHT22;10761;48.532;8.026;2024-03-17T07:21:12;7.70;99.90
21207;DHT22;10761;48.532;8.026;2024-03-17T07:23:37;7.70;99.90
21207;DHT22;10761;48.532;8.026;2024-03-17T07:26:04;7.80;99.90
21207;DHT22;10761;48.532;8.026;2024-03-17T07:28:34;7.80;99.90
21207;DHT22;10761;48.532;8.026;2024-03-17T07:31:00;7.70;99.90
21207;DHT22;10761;48.532;8.026;2024-03-17T07:33:26;7.70;99.90
21207;DHT22;10761;48.532;8.026;2024-03-17T07:35:52;7.80;99.90
21207;DHT22;10761;48.532;8.026;2024-03-17T07:38:19;7.90;99.90
21207;DHT22;10761;48.532;8.026;2024-03-17T07:40:46;8.10;99.90
21207;DHT22;10761;48.532;8.026;2024-03-17T07:43:20;8.40;99.90
21207;DHT22;10761;48.532;8.026;2024-03-17T07:45:45;8.60;99.90
21207;DHT22;10761;48.532;8.026;2024-03-17T07:48:12;8.80;99.90
21207;DHT22;10761;48.532;8.026;2024-03-17T07:50:38;8.90;99.90
21207;DHT22;10761;48.532;8.026;2024-03-17T07:53:04;9.00;99.90
21207;DHT22;10761;48.532;8.026;2024-03-17T07:55:29;8.90;99.90
21207;DHT22;10761;48.532;8.026;2024-03-17T07:57:56;9.10;99.90
21207;DHT22;10761;48.532;8.026;2024-03-17T08:00:22;9.30;99.90
21207;DHT22;10761;48.532;8.026;2024-03-17T08:02:48;9.50;99.90
21207;DHT22;10761;48.532;8.026;2024-03-17T08:05:13;9.50;99.90
21207;DHT22;10761;48.532;8.026;2024-03-17T08:07:39;9.50;99.90
21207;DHT22;10761;48.532;8.026;2024-03-17T08:10:07;9.60;99.90
21207;DHT22;10761;48.532;8.026;2024-03-17T08:12:33;9.70;99.90
21207;DHT22;10761;48.532;8.026;2024-03-17T08:14:58;9.80;99.90
21207;DHT22;10761;48.532;8.026;2024-03-17T08:17:25;9.80;99.90
21207;DHT22;10761;48.532;8.026;2024-03-17T08:19:50;9.80;99.90
21207;DHT22;10761;48.532;8.026;2024-03-17T08:22:17;9.90;99.90
21207;DHT22;10761;48.532;8.026;2024-03-17T08:24:42;10.00;99.90
21207;DHT22;10761;48.532;8.026;2024-03-17T08:27:08;10.00;99.90
21207;DHT22;10761;48.532;8.026;2024-03-17T08:29:34;10.10;99.90
21207;DHT22;10761;48.532;8.026;2024-03-17T08:32:00;10.20;99.90
21207;DHT22;10761;48.532;8.026;2024-03-17T08:34:25;10.40;99.90
21207;DHT22;10761;48.532;8.026;2024-03-17T08:36:51;11.90;99.90
21207;DHT22;10761;48.532;8.026;2024-03-17T08:39:16;11.20;99.90
21207;DHT22;10761;48.532;8.026;2024-03-17T08:41:42;11.60;1.00
21207;DHT22;10761;48.532;8.026;2024-03-17T08:44:09;12.00;1.00
21207;DHT22;10761;48.532;8.026;2024-03-17T08:46:35;12.20;1.00
21207;DHT22;10761;48.532;8.026;2024-03-17T08:49:01;12.70;99.90
21207;DHT22;10761;48.532;8.026;2024-03-17T08:51:26;12.40;1.00
21207;DHT22;10761;48.532;8.026;2024-03-17T08:53:53;12.30;99.90
21207;DHT22;10761;48.532;8.026;2024-03-17T08:56:19;12.30;99.90
21207;DHT22;10761;48.532;8.026;2024-03-17T08:58:46;12.50;99.90
21207;DHT22;10761;48.532;8.026;2024-03-17T09:01:13;12.40;1.00
21207;DHT22;10761;48.532;8.026;2024-03-17T09:03:39;13.40;99.90
21207;DHT22;10761;48.532;8.026;2024-03-17T09:06:14;13.60;1.00
21207;DHT22;10761;48.532;8.026;2024-03-17T09:08:41;13.40;85.20
21207;DHT22;10761;48.532;8.026;2024-03-17T09:11:12;13.50;99.90
21207;DHT22;10761;48.532;8.026;2024-03-17T09:13:38;13.70;99.90
21207;DHT22;10761;48.532;8.026;2024-03-17T09:16:04;13.80;1.00
21207;DHT22;10761;48.532;8.026;2024-03-17T09:18:31;14.00;99.90
21207;DHT22;10761;48.532;8.026;2024-03-17T09:23:27;14.40;1.00
21207;DHT22;10761;48.532;8.026;2024-03-17T09:26:01;14.30;1.00
21207;DHT22;10761;48.532;8.026;2024-03-17T09:28:28;14.40;99.90
21207;DHT22;10761;48.532;8.026;2024-03-17T09:30:54;14.70;99.90
21207;DHT22;10761;48.532;8.026;2024-03-17T09:33:23;15.20;1.00
21207;DHT22;10761;48.532;8.026;2024-03-17T09:35:56;14.80;1.00
21207;DHT22;10761;48.532;8.026;2024-03-17T09:38:23;14.80;1.00
21207;DHT22;10761;48.532;8.026;2024-03-17T09:40:49;15.40;1.00
21207;DHT22;10761;48.532;8.026;2024-03-17T09:43:23;15.50;1.00
21207;DHT22;10761;48.532;8.026;2024-03-17T09:45:51;15.20;99.90
21207;DHT22;10761;48.532;8.026;2024-03-17T09:48:20;15.10;1.00
21207;DHT22;10761;48.532;8.026;2024-03-17T09:50:59;15.10;1.00
21207;DHT22;10761;48.532;8.026;2024-03-17T09:53:26;14.60;99.90
21207;DHT22;10761;48.532;8.026;2024-03-17T09:55:57;14.40;1.00
21207;DHT22;10761;48.532;8.026;2024-03-17T09:58:23;14.70;1.00
21207;DHT22;10761;48.532;8.026;2024-03-17T10:00:49;14.30;99.90
21207;DHT22;10761;48.532;8.026;2024-03-17T10:03:40;14.50;1.00
21207;DHT22;10761;48.532;8.026;2024-03-17T10:06:19;14.50;1.00
21207;DHT22;10761;48.532;8.026;2024-03-17T10:08:49;15.10;99.90
21207;DHT22;10761;48.532;8.026;2024-03-17T10:11:23;14.60;1.00
21207;DHT22;10761;48.532;8.026;2024-03-17T10:14:03;14.80;99.90
21207;DHT22;10761;48.532;8.026;2024-03-17T10:16:30;14.90;1.00
21207;DHT22;10761;48.532;8.026;2024-03-17T10:21:33;15.00;1.00
21207;DHT22;10761;48.532;8.026;2024-03-17T10:24:05;15.10;65.20
21207;DHT22;10761;48.532;8.026;2024-03-17T10:26:36;15.10;1.00
21207;DHT22;10761;48.532;8.026;2024-03-17T10:29:03;15.40;99.90
21207;DHT22;10761;48.532;8.026;2024-03-17T10:31:29;15.40;1.00
21207;DHT22;10761;48.532;8.026;2024-03-17T10:34:01;15.40;1.00
21207;DHT22;10761;48.532;8.026;2024-03-17T10:36:27;15.20;1.00
21207;DHT22;10761;48.532;8.026;2024-03-17T10:38:53;15.50;99.90
21207;DHT22;10761;48.532;8.026;2024-03-17T10:41:21;15.40;1.00
21207;DHT22;10761;48.532;8.026;2024-03-17T10:43:47;16.60;1.00
21207;DHT22;10761;48.532;8.026;2024-03-17T10:46:15;15.70;99.90
21207;DHT22;10761;48.532;8.026;2024-03-17T10:48:41;15.70;99.90
21207;DHT22;10761;48.532;8.026;2024-03-17T10:51:16;15.60;99.90
21207;DHT22;10761;48.532;8.026;2024-03-17T10:53:45;15.60;1.00
21207;DHT22;10761;48.532;8.026;2024-03-17T10:56:15;16.10;99.90
21207;DHT22;10761;48.532;8.026;2024-03-17T10:58:44;16.00;1.00
21207;DHT22;10761;48.532;8.026;2024-03-17T11:01:16;15.80;99.90
21207;DHT22;10761;48.532;8.026;2024-03-17T11:03:46;16.00;99.90
21207;DHT22;10761;48.532;8.026;2024-03-17T11:06:12;15.50;1.00
21207;DHT22;10761;48.532;8.026;2024-03-17T11:08:39;15.50;99.90
21207;DHT22;10761;48.532;8.026;2024-03-17T11:11:07;15.50;99.90
21207;DHT22;10761;48.532;8.026;2024-03-17T11:13:34;15.60;99.90
21207;DHT22;10761;48.532;8.026;2024-03-17T11:16:02;16.90;1.00
21207;DHT22;10761;48.532;8.026;2024-03-17T11:18:37;16.20;91.90
21207;DHT22;10761;48.532;8.026;2024-03-17T11:23:34;16.40;1.00
21207;DHT22;10761;48.532;8.026;2024-03-17T11:26:00;16.50;1.00
21207;DHT22;10761;48.532;8.026;2024-03-17T11:34:03;16.10;1.00
21207;DHT22;10761;48.532;8.026;2024-03-17T11:36:33;16.20;1.00
21207;DHT22;10761;48.532;8.026;2024-03-17T11:41:38;16.20;1.00
21207;DHT22;10761;48.532;8.026;2024-03-17T11:49:28;16.00;1.00
21207;DHT22;10761;48.532;8.026;2024-03-17T11:51:58;15.90;1.00
21207;DHT22;10761;48.532;8.026;2024-03-17T11:54:30;15.90;1.00
21207;DHT22;10761;48.532;8.026;2024-03-17T11:57:07;16.00;99.90
21207;DHT22;10761;48.532;8.026;2024-03-17T11:59:34;16.10;12.90
21207;DHT22;10761;48.532;8.026;2024-03-17T12:02:00;16.10;99.90
21207;DHT22;10761;48.532;8.026;2024-03-17T12:04:26;16.10;1.00
21207;DHT22;10761;48.532;8.026;2024-03-17T12:06:55;16.20;1.00
21207;DHT22;10761;48.532;8.026;2024-03-17T12:09:25;16.40;1.00
21207;DHT22;10761;48.532;8.026;2024-03-17T12:12:04;16.40;1.00
21207;DHT22;10761;48.532;8.026;2024-03-17T12:14:31;16.40;1.00
21207;DHT22;10761;48.532;8.026;2024-03-17T12:16:58;16.30;99.90
21207;DHT22;10761;48.532;8.026;2024-03-17T12:19:25;16.10;1.00
21207;DHT22;10761;48.532;8.026;2024-03-17T12:21:53;16.00;1.00
21207;DHT22;10761;48.532;8.026;2024-03-17T12:24:33;15.80;1.00
21207;DHT22;10761;48.532;8.026;2024-03-17T12:27:00;15.40;1.00
21207;DHT22;10761;48.532;8.026;2024-03-17T12:31:57;14.60;1.00
21207;DHT22;10761;48.532;8.026;2024-03-17T12:34:25;14.90;1.00
21207;DHT22;10761;48.532;8.026;2024-03-17T12:36:53;14.20;1.00
21207;DHT22;10761;48.532;8.026;2024-03-17T12:39:29;14.30;1.00
21207;DHT22;10761;48.532;8.026;2024-03-17T12:42:11;14.50;1.00
21207;DHT22;10761;48.532;8.026;2024-03-17T12:44:50;14.50;99.90
21207;DHT22;10761;48.532;8.026;2024-03-17T12:47:18;14.50;1.00
21207;DHT22;10761;48.532;8.026;2024-03-17T12:49:48;14.60;99.90
21207;DHT22;10761;48.532;8.026;2024-03-17T12:52:19;14.60;1.00
21207;DHT22;10761;48.532;8.026;2024-03-17T12:54:56;14.70;1.00
21207;DHT22;10761;48.532;8.026;2024-03-17T12:57:41;14.50;1.00
21207;DHT22;10761;48.532;8.026;2024-03-17T13:00:25;14.60;1.00
21207;DHT22;10761;48.532;8.026;2024-03-17T13:03:01;14.50;99.90
21207;DHT22;10761;48.532;8.026;2024-03-17T13:05:27;14.60;1.00
21207;DHT22;10761;48.532;8.026;2024-03-17T13:07:53;14.40;1.00
21207;DHT22;10761;48.532;8.026;2024-03-17T13:10:20;14.30;99.90
21207;DHT22;10761;48.532;8.026;2024-03-17T13:12:47;14.60;1.00
21207;DHT22;10761;48.532;8.026;2024-03-17T13:15:16;14.90;1.00
21207;DHT22;10761;48.532;8.026;2024-03-17T13:17:45;15.30;99.90
21207;DHT22;10761;48.532;8.026;2024-03-17T13:20:15;15.40;1.00
21207;DHT22;10761;48.532;8.026;2024-03-17T13:22:45;15.60;99.90
21207;DHT22;10761;48.532;8.026;2024-03-17T13:27:40;15.20;1.00
21207;DHT22;10761;48.532;8.026;2024-03-17T13:30:07;15.10;1.00
21207;DHT22;10761;48.532;8.026;2024-03-17T13:32:35;14.80;1.00
21207;DHT22;10761;48.532;8.026;2024-03-17T13:35:00;14.80;99.90
21207;DHT22;10761;48.532;8.026;2024-03-17T13:37:26;14.70;67.40
21207;DHT22;10761;48.532;8.026;2024-03-17T13:39:57;14.80;1.00
21207;DHT22;10761;48.532;8.026;2024-03-17T13:42:23;15.00;1.00
21207;DHT22;10761;48.532;8.026;2024-03-17T13:44:49;16.10;1.00
21207;DHT22;10761;48.532;8.026;2024-03-17T13:47:14;14.90;99.90
21207;DHT22;10761;48.532;8.026;2024-03-17T13:49:40;15.00;1.00
21207;DHT22;10761;48.532;8.026;2024-03-17T13:52:05;15.60;1.00
21207;DHT22;10761;48.532;8.026;2024-03-17T13:54:31;15.00;1.00
21207;DHT22;10761;48.532;8.026;2024-03-17T13:56:57;15.20;1.00
21207;DHT22;10761;48.532;8.026;2024-03-17T13:59:23;15.70;1.00
21207;DHT22;10761;48.532;8.026;2024-03-17T14:01:50;16.50;99.90
21207;DHT22;10761;48.532;8.026;2024-03-17T14:04:16;17.30;1.00
21207;DHT22;10761;48.532;8.026;2024-03-17T14:06:44;17.20;1.00
21207;DHT22;10761;48.532;8.026;2024-03-17T14:09:11;17.50;1.00
21207;DHT22;10761;48.532;8.026;2024-03-17T14:11:37;17.80;1.00
21207;DHT22;10761;48.532;8.026;2024-03-17T14:14:07;17.90;1.00
21207;DHT22;10761;48.532;8.026;2024-03-17T14:16:33;18.10;1.00
21207;DHT22;10761;48.532;8.026;2024-03-17T14:18:59;18.50;1.00
21207;DHT22;10761;48.532;8.026;2024-03-17T14:21:26;18.60;1.00
21207;DHT22;10761;48.532;8.026;2024-03-17T14:23:52;18.50;1.00
21207;DHT22;10761;48.532;8.026;2024-03-17T14:26:18;18.60;1.00
21207;DHT22;10761;48.532;8.026;2024-03-17T14:28:43;18.50;1.00
21207;DHT22;10761;48.532;8.026;2024-03-17T14:31:09;17.50;1.00
21207;DHT22;10761;48.532;8.026;2024-03-17T14:33:34;17.00;1.00
21207;DHT22;10761;48.532;8.026;2024-03-17T14:36:00;16.60;1.00
21207;DHT22;10761;48.532;8.026;2024-03-17T14:38:26;16.00;1.00
21207;DHT22;10761;48.532;8.026;2024-03-17T14:40:52;15.70;99.90
21207;DHT22;10761;48.532;8.026;2024-03-17T14:43:19;15.60;99.90
21207;DHT22;10761;48.532;8.026;2024-03-17T14:45:45;16.10;99.90
21207;DHT22;10761;48.532;8.026;2024-03-17T14:48:11;15.50;99.90
21207;DHT22;10761;48.532;8.026;2024-03-17T14:50:38;15.20;1.00
21207;DHT22;10761;48.532;8.026;2024-03-17T14:53:04;15.10;1.00
21207;DHT22;10761;48.532;8.026;2024-03-17T14:55:30;15.20;99.90
21207;DHT22;10761;48.532;8.026;2024-03-17T14:57:56;15.10;1.00
21207;DHT22;10761;48.532;8.026;2024-03-17T15:00:22;15.00;1.00
21207;DHT22;10761;48.532;8.026;2024-03-17T15:02:50;14.90;1.00
21207;DHT22;10761;48.532;8.026;2024-03-17T15:05:17;14.70;1.00
21207;DHT22;10761;48.532;8.026;2024-03-17T15:07:47;14.60;1.00
21207;DHT22;10761;48.532;8.026;2024-03-17T15:10:14;14.50;99.90
21207;DHT22;10761;48.532;8.026;2024-03-17T15:12:49;14.60;1.00
21207;DHT22;10761;48.532;8.026;2024-03-17T15:15:15;14.60;1.00
21207;DHT22;10761;48.532;8.026;2024-03-17T15:17:41;14.70;99.90
21207;DHT22;10761;48.532;8.026;2024-03-17T15:20:07;14.90;99.90
21207;DHT22;10761;48.532;8.026;2024-03-17T15:22:45;15.10;99.90
21207;DHT22;10761;48.532;8.026;2024-03-17T15:25:12;15.40;99.90
21207;DHT22;10761;48.532;8.026;2024-03-17T15:27:40;15.40;1.00
21207;DHT22;10761;48.532;8.026;2024-03-17T15:30:06;15.60;1.00
21207;DHT22;10761;48.532;8.026;2024-03-17T15:32:32;15.30;1.00
21207;DHT22;10761;48.532;8.026;2024-03-17T15:34:57;15.10;58.70
21207;DHT22;10761;48.532;8.026;2024-03-17T15:37:24;15.10;40.60
21207;DHT22;10761;48.532;8.026;2024-03-17T15:39:50;15.30;99.90
21207;DHT22;10761;48.532;8.026;2024-03-17T15:42:15;15.20;99.90
21207;DHT22;10761;48.532;8.026;2024-03-17T15:44:42;15.00;99.90
21207;DHT22;10761;48.532;8.026;2024-03-17T15:47:08;15.00;99.90
21207;DHT22;10761;48.532;8.026;2024-03-17T15:49:33;14.90;99.90
21207;DHT22;10761;48.532;8.026;2024-03-17T15:51:59;14.80;99.90
21207;DHT22;10761;48.532;8.026;2024-03-17T15:54:25;15.50;1.00
21207;DHT22;10761;48.532;8.026;2024-03-17T15:56:50;14.70;99.90
21207;DHT22;10761;48.532;8.026;2024-03-17T15:59:16;14.50;99.90
21207;DHT22;10761;48.532;8.026;2024-03-17T16:01:44;14.40;1.00
21207;DHT22;10761;48.532;8.026;2024-03-17T16:04:10;14.40;1.00
21207;DHT22;10761;48.532;8.026;2024-03-17T16:06:36;14.30;1.00
21207;DHT22;10761;48.532;8.026;2024-03-17T16:09:03;14.20;99.90
21207;DHT22;10761;48.532;8.026;2024-03-17T16:11:30;14.10;1.00